Fisher, LA

7:24 AM CDT on October 22, 2014 (GMT -0500)
Natchitoches Regional | Change Station
CLOSE
Current Station
Airport
Location: Natchitoches,
Elevation: 118 ft
Nearby Weather Stations

Elev 118 ft 31.74 °N, 93.10 °W | Updated 9 minutes ago

Partly Cloudy
Partly Cloudy
55 °F
Feels Like 55 °F
N
0
Wind Variable Wind from North

Today
High -- | Low -- °F
--% Chance of Precip.
Yesterday
High -- | Low -- °F
Precip. -- in
7:21 AM 6:34 PM
Waning Crescent, 2% visible
Pressure 30.11 in
Visibility 1.0 miles
Clouds
Dew Point 55 °F
Humidity 100%
Rainfall 0.00 in
Snow Depth Not available.
UV Not available.
Pollen 2.60 out of 12
Air Quality Not available.
Flu Activity Sporadic
METAR KIER 221215Z AUTO 00000KT 1SM BR VV007 13/13 A3011 RMK AO2 T01290129

More Conditions Fewer Conditions

Pressure 30.11 in
Visibility 1.0 miles
Clouds
Dew Point 55 °F
Humidity 100%
Rainfall 0.00 in
Snow Depth Not available.
UV Not available.
Pollen 2.60 out of 12
Air Quality Not available.
Flu Activity Sporadic
METAR KIER 221215Z AUTO 00000KT 1SM BR VV007 13/13 A3011 RMK AO2 T01290129

More Conditions Fewer Conditions

10-Day Weather Forecast

Almanac

Astronomy

Oct. 22, 2014 Rise Set
Actual Time 7:21 AM CDT 6:34 PM CDT
Civil Twilight 6:57 AM CDT 6:58 PM CDT
Nautical Twilight 6:28 AM CDT 7:27 PM CDT
Astronomical Twilight 6:00 AM CDT 7:55 PM CDT
Moon 6:08 AM CDT 5:58 PM CDT
Length of Visible Light 12h 01m
Length of Day
11h 12m
Tomorrow will be 1m 47s shorter.
Waning Crescent, 2% of the Moon is Illuminated
Today
Waning Crescent
Oct 23
New
Oct 30
First Quarter
Nov 6
Full
Nov 14
Last Quarter

Today's Extremes

State Highs State Lows

Community

WunderPhotos

Upload Photos

1,763,907 photos uploaded!

Nearby

Snow Depth

Station Depth Elevation
No new snow has been reported.

Earthquake Activity

City Distance Mag. Time & Date
No recent earthquake activity has been reported nearby.
Minimum magnitude displayed is 2.5.

Coastal Water Temperatures

Place Temperature
No Stations Reporting

Nearby Weather Stations